메인 페이지
METAR-TAF:

METAR-TAF

공항 :

윌크스바 / Scranton, 펜실베이니아, 미국

위도: 41-20-20N, 경도: 075-43-36W, 고도: 293m

현재 날씨관측

예보는 12분 전, 13:54시(UTC)에 발표되었습니다.
서북서3kt
온도 12°C
습도 40%
기압 1015 hPa
시정: 16.1km
고도 11000ft 상공 구름 많음

METAR: KAVP 071354Z 29003KT 10SM BKN110 12/M01 A2996 RMK AO2 SLP146 T01221006 $

시각: 10:06 (14:06 UTC)

예보

예보는 2 시간 42분 전, 11:24시(UTC)에 발표되었습니다.
예보 대상 시간: 07일 12시부터 08일 12시까지 (UTC)
7kt
시정: 10km
고도 10000ft 상공 구름 많음
08일 0200시부터 (UTC)
남동3kt
시정: 9.7km
고도 3500ft 상공 구름 많음
약한소나기
08일 0800시부터 (UTC)
3kt
시정: 6.4km
고도 1500ft 상공 흐림
약한소나기
08일 1000시부터 (UTC)
여러 방향의 바람 3kt
시정: 8.0km
고도 900ft 상공 흐림
약한소나기, 박무

TAF: KAVP 071124Z 0712/0812 27007KT P6SM BKN100 FM080200 13003KT 6SM -SHRA BKN035 FM080800 28003KT 4SM -SHRA OVC015 FM081000 VRB03KT 5SM -SHRA BR OVC009

4,000개 이상의 공항 관측 자료 및 예보 (METAR 및 TAF 보고).

지도상에서 검색 가능한 기상관측소가 노란 점과 빨간 점으로 표시되어 있습니다.

기상관측소 명을 보려면 표시 위로 마우스를 이동하세요.

날씨 관측과 예보를 보려면 클릭하세요.

지도 변경 : 확대하려면 엑스 표시가 있는 녹색 버튼, 축소하려면 빼기 표시가 있는 녹색 버튼, 다음 페이지의 지도를 보려면 녹색 화살표를 클릭하세요.


METAR-TAF: